Time;durP1;ratioP1;P1;durP2;ratioP2;P2;SDS_P1;SDS_P2;PMS_P1;PMS_P2;Temp;Humidity;BMP_temperature;BMP_pressure;BME280_temperature;BME280_humidity;BME280_pressure;Samples;Min_cycle;Max_cycle;Signal;HPM_P1;HPM_P2
2023/11/03 00:00:13;;;;;;;7.00;1.80;;;9.70;99.90;;;;;;5013109;28;20480;-79
2023/11/03 00:02:40;;;;;;;5.07;1.63;;;9.70;99.90;;;;;;5013038;28;20442;-79
2023/11/03 00:05:12;;;;;;;9.73;2.60;;;9.60;99.90;;;;;;5012198;28;20487;-80
2023/11/03 00:07:39;;;;;;;12.50;2.00;;;9.60;99.90;;;;;;5014239;28;20461;-79
2023/11/03 00:10:09;;;;;;;8.80;1.53;;;9.60;99.90;;;;;;5013063;28;20464;-79
2023/11/03 00:12:38;;;;;;;4.27;1.50;;;9.60;99.90;;;;;;5013233;28;20460;-78
2023/11/03 00:15:10;;;;;;;8.23;2.17;;;9.60;99.90;;;;;;5012855;28;20899;-77
2023/11/03 00:17:38;;;;;;;4.87;1.40;;;9.50;99.90;;;;;;5013444;28;20907;-79
2023/11/03 00:20:06;;;;;;;8.30;2.07;;;9.60;99.90;;;;;;5013022;28;20534;-79
2023/11/03 00:22:33;;;;;;;7.07;1.90;;;9.60;99.90;;;;;;5013763;28;20452;-78
2023/11/03 00:25:05;;;;;;;6.50;1.83;;;9.60;99.90;;;;;;5014635;28;20488;-79
2023/11/03 00:27:33;;;;;;;4.40;1.60;;;9.60;99.90;;;;;;5015105;28;20457;-79
2023/11/03 00:30:07;;;;;;;9.40;2.17;;;9.70;99.90;;;;;;5013881;28;20962;-78
2023/11/03 00:32:36;;;;;;;6.60;2.20;;;9.70;99.90;;;;;;5014310;28;20508;-79
2023/11/03 00:35:08;;;;;;;3.30;1.40;;;9.60;99.90;;;;;;5013576;28;21344;-79
2023/11/03 00:37:35;;;;;;;5.17;2.00;;;9.60;99.90;;;;;;5013755;28;20492;-79
2023/11/03 00:40:02;;;;;;;5.50;1.33;;;9.60;99.90;;;;;;5015174;28;20518;-79
2023/11/03 00:42:29;;;;;;;4.87;1.30;;;9.50;99.90;;;;;;5015043;28;20454;-79
2023/11/03 00:44:57;;;;;;;5.60;1.30;;;9.60;99.90;;;;;;5014961;28;20574;-80
2023/11/03 00:47:24;;;;;;;3.67;1.07;;;9.60;99.90;;;;;;5013836;28;20954;-79
2023/11/03 00:49:53;;;;;;;4.87;1.07;;;9.50;99.90;;;;;;5019407;28;20468;-77
2023/11/03 00:52:20;;;;;;;4.80;1.47;;;9.50;99.90;;;;;;5019250;28;20452;-78
2023/11/03 00:54:46;;;;;;;3.03;0.93;;;9.50;99.90;;;;;;5014016;28;20488;-78
2023/11/03 00:57:13;;;;;;;3.30;1.00;;;9.50;99.90;;;;;;5017302;28;20941;-78
2023/11/03 00:59:40;;;;;;;6.30;0.90;;;9.40;99.90;;;;;;5016765;28;20456;-79
2023/11/03 01:02:11;;;;;;;7.13;1.27;;;9.40;99.90;;;;;;5018244;28;20474;-78
2023/11/03 01:04:38;;;;;;;1.93;0.90;;;9.40;99.90;;;;;;5017969;28;20480;-80
2023/11/03 01:07:07;;;;;;;2.30;0.80;;;9.30;99.90;;;;;;5018592;28;20487;-79
2023/11/03 01:09:34;;;;;;;1.83;0.90;;;9.30;99.90;;;;;;5017463;28;20489;-79
2023/11/03 01:12:01;;;;;;;2.60;0.77;;;9.30;99.90;;;;;;5017099;28;20453;-78
2023/11/03 01:14:32;;;;;;;3.60;0.90;;;9.30;99.90;;;;;;5016622;28;20492;-78
2023/11/03 01:17:00;;;;;;;2.50;0.83;;;9.40;99.90;;;;;;5016761;28;20496;-78
2023/11/03 01:19:28;;;;;;;2.40;0.90;;;9.40;99.90;;;;;;5016859;28;20476;-79
2023/11/03 01:21:55;;;;;;;3.50;1.17;;;9.40;99.90;;;;;;5017357;28;20517;-79
2023/11/03 01:24:25;;;;;;;5.00;1.40;;;9.40;99.90;;;;;;5016970;28;21001;-79
2023/11/03 01:26:52;;;;;;;2.00;0.90;;;9.50;99.90;;;;;;5016194;28;20450;-79
2023/11/03 01:29:20;;;;;;;4.00;1.27;;;9.60;99.90;;;;;;5015825;28;20464;-79
2023/11/03 01:31:47;;;;;;;1.90;0.80;;;9.60;99.90;;;;;;5016549;28;20540;-79
2023/11/03 01:34:16;;;;;;;2.40;0.93;;;9.70;99.90;;;;;;5015949;28;20478;-79
2023/11/03 01:36:43;;;;;;;2.97;0.90;;;9.80;99.90;;;;;;5015714;28;20492;-80
2023/11/03 01:39:11;;;;;;;2.97;1.20;;;9.80;99.50;;;;;;5015467;28;20503;-79
2023/11/03 01:41:39;;;;;;;3.07;0.90;;;9.90;58.20;;;;;;5015455;28;20892;-79
2023/11/03 01:44:11;;;;;;;3.43;1.00;;;10.00;69.70;;;;;;5015770;28;20512;-79
2023/11/03 01:46:41;;;;;;;2.00;0.80;;;10.00;14.70;;;;;;5015568;28;21007;-80
2023/11/03 01:49:09;;;;;;;4.37;1.00;;;10.10;28.10;;;;;;5015548;28;20456;-79
2023/11/03 01:51:36;;;;;;;4.90;1.10;;;10.10;13.60;;;;;;5020642;28;20464;-77
2023/11/03 01:54:04;;;;;;;2.67;1.17;;;10.10;12.90;;;;;;5021094;28;20564;-79
2023/11/03 01:56:35;;;;;;;3.80;1.27;;;10.20;35.30;;;;;;5018710;28;20496;-77
2023/11/03 01:59:05;;;;;;;2.30;1.20;;;10.20;1.00;;;;;;5017962;28;20990;-78
2023/11/03 02:01:35;;;;;;;3.20;0.80;;;10.20;1.00;;;;;;5018239;28;20457;-79
2023/11/03 02:04:02;;;;;;;2.07;0.90;;;10.20;1.00;;;;;;5017394;28;20492;-79
2023/11/03 02:06:28;;;;;;;4.33;1.57;;;10.20;1.00;;;;;;5016803;28;20536;-79
2023/11/03 02:08:55;;;;;;;5.80;1.10;;;10.20;1.00;;;;;;5018143;28;20471;-79
2023/11/03 02:11:28;;;;;;;2.87;1.10;;;10.30;1.00;;;;;;5019643;28;20460;-78
2023/11/03 02:13:55;;;;;;;3.03;0.87;;;10.40;1.00;;;;;;5018760;28;20520;-80
2023/11/03 02:16:23;;;;;;;2.20;1.00;;;10.40;1.00;;;;;;5018152;28;20550;-78
2023/11/03 02:18:51;;;;;;;2.87;0.97;;;10.40;1.00;;;;;;5018134;28;20462;-77
2023/11/03 02:21:18;;;;;;;2.10;0.80;;;10.40;1.00;;;;;;5019929;28;20480;-79
2023/11/03 02:23:46;;;;;;;1.90;1.00;;;10.40;1.00;;;;;;5020176;28;20524;-77
2023/11/03 02:26:13;;;;;;;4.90;0.80;;;10.40;1.00;;;;;;5017349;28;20461;-80
2023/11/03 02:28:39;;;;;;;3.40;0.80;;;10.40;1.00;;;;;;5014976;28;20476;-80
2023/11/03 02:31:06;;;;;;;2.47;1.00;;;10.40;1.00;;;;;;5015177;28;20456;-79
2023/11/03 02:33:33;;;;;;;3.23;1.00;;;10.50;1.00;;;;;;5015449;28;20469;-80
2023/11/03 02:36:00;;;;;;;3.17;0.83;;;10.40;1.00;;;;;;5015189;28;20451;-79
2023/11/03 02:38:29;;;;;;;1.73;0.77;;;10.40;1.00;;;;;;5015082;28;20502;-79
2023/11/03 02:40:57;;;;;;;2.10;0.80;;;10.40;1.00;;;;;;5015245;28;20461;-79
2023/11/03 02:43:24;;;;;;;4.03;0.90;;;10.40;1.00;;;;;;5014828;28;20461;-79
2023/11/03 02:45:51;;;;;;;2.57;0.90;;;10.50;1.00;;;;;;5014809;28;20996;-78
2023/11/03 02:48:18;;;;;;;2.37;1.00;;;10.50;1.00;;;;;;5014387;28;20460;-80
2023/11/03 02:50:45;;;;;;;3.30;1.20;;;10.40;1.00;;;;;;5015588;28;20458;-79
2023/11/03 02:53:12;;;;;;;2.83;0.70;;;10.40;1.00;;;;;;5015011;28;20462;-80
2023/11/03 02:55:38;;;;;;;2.53;1.20;;;10.40;1.00;;;;;;5016403;28;20450;-78
2023/11/03 02:58:07;;;;;;;8.80;1.20;;;10.40;1.00;;;;;;5018882;28;20490;-80
2023/11/03 03:00:34;;;;;;;2.73;0.80;;;10.40;1.00;;;;;;5014641;28;20840;-80
2023/11/03 03:03:01;;;;;;;2.53;1.10;;;10.40;1.00;;;;;;5015164;28;20457;-79
2023/11/03 03:05:29;;;;;;;2.10;0.80;;;10.50;1.00;;;;;;5014734;28;20481;-79
2023/11/03 03:07:56;;;;;;;2.07;0.97;;;10.50;1.00;;;;;;5014721;28;20537;-80
2023/11/03 03:10:23;;;;;;;3.40;1.07;;;10.50;1.00;;;;;;5014601;28;20469;-80
2023/11/03 03:12:50;;;;;;;4.13;1.00;;;10.50;1.00;;;;;;5014017;28;20495;-80
2023/11/03 03:15:18;;;;;;;2.90;1.00;;;10.50;1.00;;;;;;5006057;28;20482;-80
2023/11/03 03:17:48;;;;;;;4.20;0.80;;;10.50;1.00;;;;;;5014637;28;20519;-80
2023/11/03 03:20:15;;;;;;;4.00;0.90;;;10.50;1.00;;;;;;5014657;28;20532;-80
2023/11/03 03:22:42;;;;;;;2.83;0.90;;;10.50;1.00;;;;;;5014462;28;20457;-79
2023/11/03 03:25:09;;;;;;;2.73;1.07;;;10.50;1.00;;;;;;5014012;28;20984;-81
2023/11/03 03:27:36;;;;;;;3.20;0.93;;;10.50;1.00;;;;;;5014439;28;20453;-79
2023/11/03 03:30:04;;;;;;;2.47;0.90;;;10.50;1.00;;;;;;5013924;28;20475;-80
2023/11/03 03:32:32;;;;;;;2.73;0.80;;;10.50;1.00;;;;;;5014113;28;20454;-80
2023/11/03 03:34:59;;;;;;;3.17;1.10;;;10.50;1.00;;;;;;5012043;28;20867;-80
2023/11/03 03:37:26;;;;;;;2.37;1.00;;;10.40;1.00;;;;;;5014097;28;20489;-80
2023/11/03 03:39:53;;;;;;;3.30;1.00;;;10.40;1.00;;;;;;5014066;28;20839;-80
2023/11/03 03:42:19;;;;;;;3.17;0.80;;;10.40;1.00;;;;;;5013495;28;20468;-79
2023/11/03 03:44:47;;;;;;;6.00;1.10;;;10.40;1.00;;;;;;5013959;28;20961;-79
2023/11/03 03:47:18;;;;;;;3.10;1.07;;;10.40;1.00;;;;;;5013666;28;20508;-78
2023/11/03 03:49:46;;;;;;;4.63;1.13;;;10.40;1.00;;;;;;5013597;28;20463;-78
2023/11/03 03:52:13;;;;;;;4.47;2.67;;;10.40;1.00;;;;;;5013407;28;20458;-78
2023/11/03 03:54:39;;;;;;;2.13;0.73;;;10.30;1.00;;;;;;5013674;28;20867;-78
2023/11/03 03:57:06;;;;;;;3.83;0.90;;;10.30;1.00;;;;;;5013928;28;20511;-80
2023/11/03 03:59:36;;;;;;;3.70;2.60;;;10.30;1.00;;;;;;5013817;28;20460;-79
2023/11/03 04:02:03;;;;;;;2.97;1.10;;;10.30;1.00;;;;;;5013611;28;20461;-79
2023/11/03 04:04:30;;;;;;;5.33;1.00;;;10.30;1.00;;;;;;5013844;28;20495;-79
2023/11/03 04:06:58;;;;;;;6.17;1.40;;;10.30;1.00;;;;;;5013725;28;20465;-80
2023/11/03 04:09:26;;;;;;;2.67;1.00;;;10.30;1.00;;;;;;5013581;28;20838;-79
2023/11/03 04:11:52;;;;;;;5.23;1.20;;;10.20;1.00;;;;;;5013655;28;20461;-79
2023/11/03 04:14:19;;;;;;;2.27;0.73;;;10.30;1.00;;;;;;5013868;28;20472;-79
2023/11/03 04:16:48;;;;;;;8.40;1.43;;;10.20;1.00;;;;;;5013633;28;20464;-79
2023/11/03 04:19:15;;;;;;;4.43;1.10;;;10.30;1.00;;;;;;5013364;28;20453;-80
2023/11/03 04:21:42;;;;;;;3.00;0.80;;;10.30;1.00;;;;;;5013709;28;20461;-79
2023/11/03 04:24:11;;;;;;;2.27;0.80;;;10.30;1.00;;;;;;5012818;28;20477;-79
2023/11/03 04:26:37;;;;;;;5.17;1.30;;;10.30;1.00;;;;;;5013042;28;20461;-80
2023/11/03 04:29:04;;;;;;;3.57;0.90;;;10.30;1.00;;;;;;5012454;28;20465;-79
2023/11/03 04:31:31;;;;;;;3.50;0.97;;;10.30;1.00;;;;;;5017441;28;20457;-78
2023/11/03 04:33:58;;;;;;;5.17;1.23;;;10.30;1.00;;;;;;5017015;28;20480;-78
2023/11/03 04:36:24;;;;;;;4.47;0.90;;;10.40;1.00;;;;;;5017091;28;20461;-80
2023/11/03 04:38:51;;;;;;;3.60;1.10;;;10.30;1.00;;;;;;5016900;28;20503;-79
2023/11/03 04:41:19;;;;;;;3.30;1.20;;;10.30;1.00;;;;;;5017029;28;20464;-80
2023/11/03 04:43:48;;;;;;;3.77;1.03;;;10.30;1.00;;;;;;5017311;28;20487;-79
2023/11/03 04:46:14;;;;;;;6.93;1.43;;;10.30;1.00;;;;;;5016167;28;20472;-79
2023/11/03 04:48:43;;;;;;;3.27;1.20;;;10.20;1.00;;;;;;5016738;28;20460;-80
2023/11/03 04:51:10;;;;;;;5.73;1.03;;;10.20;1.00;;;;;;5016829;28;20454;-80
2023/11/03 04:53:37;;;;;;;4.87;0.90;;;10.20;1.00;;;;;;5017095;28;20479;-80
2023/11/03 04:56:07;;;;;;;5.40;1.57;;;10.20;1.00;;;;;;5017069;28;20464;-79
2023/11/03 04:58:35;;;;;;;6.50;1.60;;;10.20;1.00;;;;;;5016791;28;20918;-79
2023/11/03 05:01:02;;;;;;;5.60;1.00;;;10.20;1.00;;;;;;5017287;28;20984;-80
2023/11/03 05:03:28;;;;;;;2.67;1.13;;;10.20;1.00;;;;;;5018622;28;20461;-79
2023/11/03 05:05:55;;;;;;;3.73;1.27;;;10.20;1.00;;;;;;5019112;28;20503;-80
2023/11/03 05:08:22;;;;;;;6.63;1.20;;;10.10;1.00;;;;;;5016261;28;20454;-80
2023/11/03 05:10:49;;;;;;;2.30;1.13;;;10.20;1.00;;;;;;5016325;28;20541;-81
2023/11/03 05:13:16;;;;;;;9.17;2.20;;;10.20;1.00;;;;;;5016643;28;20454;-79
2023/11/03 05:15:46;;;;;;;6.10;1.40;;;10.20;1.00;;;;;;5016403;28;20506;-79
2023/11/03 05:18:13;;;;;;;5.00;1.20;;;10.20;1.00;;;;;;5015911;28;20533;-80
2023/11/03 05:20:41;;;;;;;4.67;1.50;;;10.20;1.00;;;;;;5015887;28;20494;-79
2023/11/03 05:23:09;;;;;;;3.87;1.33;;;10.30;1.00;;;;;;5016349;28;20962;-81
2023/11/03 05:25:36;;;;;;;5.33;1.60;;;10.30;1.00;;;;;;5016111;28;20464;-80
2023/11/03 05:28:03;;;;;;;5.57;1.70;;;10.30;1.00;;;;;;5015217;28;20913;-79
2023/11/03 05:30:30;;;;;;;12.23;1.53;;;10.20;1.00;;;;;;5015798;28;20468;-81
2023/11/03 05:32:59;;;;;;;5.90;1.33;;;10.30;1.00;;;;;;5017716;28;20449;-79
2023/11/03 05:35:28;;;;;;;6.50;1.40;;;10.20;1.00;;;;;;5016159;28;20539;-79
2023/11/03 05:37:54;;;;;;;4.13;1.10;;;10.20;1.00;;;;;;5016129;28;20521;-77
2023/11/03 05:40:24;;;;;;;6.27;1.50;;;10.20;1.00;;;;;;5015549;28;20457;-79
2023/11/03 05:42:51;;;;;;;12.80;2.80;;;10.10;1.00;;;;;;5014689;28;20459;-79
2023/11/03 05:45:18;;;;;;;5.80;2.07;;;10.10;1.00;;;;;;5016389;28;20486;-79
2023/11/03 05:47:45;;;;;;;6.60;2.13;;;10.20;1.00;;;;;;5016725;28;20449;-79
2023/11/03 05:50:13;;;;;;;6.10;1.50;;;10.20;1.00;;;;;;5015583;28;20855;-78
2023/11/03 05:52:40;;;;;;;9.80;3.83;;;10.20;1.00;;;;;;5016208;28;20473;-78
2023/11/03 05:55:07;;;;;;;8.23;2.30;;;10.20;1.00;;;;;;5015999;28;20481;-82
2023/11/03 05:57:34;;;;;;;9.57;1.97;;;10.20;1.00;;;;;;5015895;28;20495;-80
2023/11/03 06:00:01;;;;;;;3.00;1.33;;;10.30;1.00;;;;;;5016359;28;20541;-80
2023/11/03 06:02:30;;;;;;;5.30;1.57;;;10.40;1.00;;;;;;5015850;28;20461;-79
2023/11/03 06:04:56;;;;;;;5.90;1.20;;;10.40;1.00;;;;;;5013260;28;20578;-78
2023/11/03 06:07:24;;;;;;;4.90;1.53;;;10.30;1.00;;;;;;5007286;28;20965;-79
2023/11/03 06:09:52;;;;;;;7.40;1.50;;;10.30;1.00;;;;;;5014181;28;20469;-77
2023/11/03 06:12:18;;;;;;;12.43;2.70;;;10.30;1.00;;;;;;5009660;28;20457;-77
2023/11/03 06:14:45;;;;;;;9.57;2.20;;;10.30;1.00;;;;;;5014320;28;20473;-78
2023/11/03 06:17:12;;;;;;;7.00;1.60;;;10.20;1.00;;;;;;5014375;28;20460;-77
2023/11/03 06:19:39;;;;;;;2.80;1.17;;;10.20;1.00;;;;;;5015072;28;20468;-77
2023/11/03 06:22:06;;;;;;;7.20;1.87;;;10.20;1.00;;;;;;5014641;28;20460;-78
2023/11/03 06:24:34;;;;;;;6.07;1.50;;;10.20;1.00;;;;;;5014668;28;20473;-79
2023/11/03 06:27:01;;;;;;;5.00;1.20;;;10.20;1.00;;;;;;5014784;28;20467;-78
2023/11/03 06:29:27;;;;;;;8.43;1.73;;;10.10;1.00;;;;;;5013534;28;20815;-78
2023/11/03 06:31:54;;;;;;;7.80;2.97;;;10.10;1.00;;;;;;5014268;28;20463;-80
2023/11/03 06:34:21;;;;;;;6.40;1.80;;;10.10;1.00;;;;;;5015157;28;20846;-78
2023/11/03 06:36:48;;;;;;;6.87;1.30;;;10.10;1.00;;;;;;5011608;28;21034;-79
2023/11/03 06:39:17;;;;;;;5.70;1.60;;;10.10;1.00;;;;;;5013825;28;21033;-79
2023/11/03 06:41:46;;;;;;;5.87;1.20;;;10.10;1.00;;;;;;5015482;28;20906;-80
2023/11/03 06:44:13;;;;;;;5.70;1.70;;;10.10;1.00;;;;;;5012840;28;20481;-79
2023/11/03 06:46:39;;;;;;;7.63;2.13;;;10.20;1.00;;;;;;5014736;28;20489;-79
2023/11/03 06:49:07;;;;;;;8.50;1.87;;;10.20;1.00;;;;;;5015296;28;20832;-77
2023/11/03 06:51:34;;;;;;;8.50;1.83;;;10.20;1.00;;;;;;5014817;28;20457;-78
2023/11/03 06:54:01;;;;;;;5.57;1.20;;;10.30;1.00;;;;;;5014927;28;20508;-78
2023/11/03 06:56:28;;;;;;;5.53;1.50;;;10.30;1.00;;;;;;5015496;28;20462;-79
2023/11/03 06:58:56;;;;;;;3.07;1.33;;;10.30;1.00;;;;;;5013626;28;20492;-79
2023/11/03 07:01:23;;;;;;;4.93;1.37;;;10.30;1.00;;;;;;5015162;28;20458;-80
2023/11/03 07:03:51;;;;;;;2.90;1.03;;;10.40;1.00;;;;;;5014989;28;20489;-78
2023/11/03 07:06:20;;;;;;;10.13;1.80;;;10.40;1.00;;;;;;5014639;28;20518;-78
2023/11/03 07:08:47;;;;;;;4.97;1.40;;;10.50;1.00;;;;;;5013321;28;20976;-78
2023/11/03 07:11:14;;;;;;;3.37;1.53;;;10.60;1.00;;;;;;5021017;28;20534;-77
2023/11/03 07:13:41;;;;;;;4.90;1.60;;;10.70;1.00;;;;;;5017169;28;20556;-79
2023/11/03 07:16:13;;;;;;;4.60;1.43;;;10.80;1.00;;;;;;5005928;28;20450;-79
2023/11/03 07:18:41;;;;;;;4.70;1.20;;;10.80;1.00;;;;;;5008823;28;20490;-79
2023/11/03 07:21:12;;;;;;;5.63;1.50;;;10.80;1.00;;;;;;5014067;28;20463;-79
2023/11/03 07:23:39;;;;;;;6.70;1.73;;;10.90;1.00;;;;;;5014894;28;20485;-78
2023/11/03 07:26:06;;;;;;;3.40;1.40;;;10.90;1.00;;;;;;5014999;28;20465;-78
2023/11/03 07:28:33;;;;;;;3.97;1.40;;;10.80;1.00;;;;;;5013420;28;20462;-79
2023/11/03 07:31:03;;;;;;;9.67;1.83;;;10.80;1.00;;;;;;5013998;28;20470;-79
2023/11/03 07:33:31;;;;;;;9.13;1.70;;;10.90;1.00;;;;;;5014563;28;20481;-79
2023/11/03 07:35:59;;;;;;;4.20;1.30;;;10.90;1.00;;;;;;5013814;28;20465;-79
2023/11/03 07:38:25;;;;;;;4.07;1.30;;;10.80;1.00;;;;;;5013875;28;20592;-79
2023/11/03 07:40:52;;;;;;;3.20;1.17;;;10.90;1.00;;;;;;5015285;28;20457;-80
2023/11/03 07:43:19;;;;;;;4.10;1.33;;;11.00;1.00;;;;;;5007416;28;20837;-80
2023/11/03 07:45:46;;;;;;;5.87;1.80;;;11.00;1.00;;;;;;5014183;28;20541;-80
2023/11/03 07:48:13;;;;;;;5.80;1.33;;;11.00;1.00;;;;;;5014538;28;20460;-80
2023/11/03 07:50:41;;;;;;;6.27;2.50;;;11.00;1.00;;;;;;5014400;28;20464;-81
2023/11/03 07:53:08;;;;;;;8.90;1.77;;;10.80;1.00;;;;;;5014178;28;20505;-79
2023/11/03 07:55:36;;;;;;;6.87;1.47;;;10.90;1.00;;;;;;5014139;28;20466;-79
2023/11/03 07:58:04;;;;;;;6.80;1.30;;;10.90;1.00;;;;;;5013140;28;21015;-79
2023/11/03 08:00:30;;;;;;;8.40;1.80;;;11.00;1.00;;;;;;5013632;28;20544;-80
2023/11/03 08:02:59;;;;;;;6.80;1.77;;;10.90;1.00;;;;;;5015670;28;20556;-81
2023/11/03 08:05:26;;;;;;;10.17;2.07;;;10.90;1.00;;;;;;5015197;28;20569;-79
2023/11/03 08:07:54;;;;;;;7.13;1.50;;;11.00;1.00;;;;;;5014572;28;20823;-79
2023/11/03 08:10:21;;;;;;;3.93;1.20;;;11.10;1.00;;;;;;5013879;28;20466;-79
2023/11/03 08:12:48;;;;;;;6.30;1.57;;;11.10;1.00;;;;;;5013745;28;20522;-78
2023/11/03 08:15:15;;;;;;;4.90;1.40;;;11.00;1.00;;;;;;5013166;28;20569;-81
2023/11/03 08:17:43;;;;;;;5.50;1.47;;;11.00;1.00;;;;;;5012407;28;20457;-81
2023/11/03 08:20:11;;;;;;;7.13;1.90;;;11.00;1.00;;;;;;5011377;28;20487;-81
2023/11/03 08:22:39;;;;;;;3.57;1.30;;;11.20;1.00;;;;;;5012455;28;20513;-79
2023/11/03 08:25:08;;;;;;;5.20;1.43;;;11.20;1.00;;;;;;5011939;28;20496;-80
2023/11/03 08:27:35;;;;;;;5.73;1.43;;;11.30;1.00;;;;;;5013516;28;20453;-80
2023/11/03 08:30:03;;;;;;;7.60;1.27;;;11.30;1.00;;;;;;5013244;28;20477;-77
2023/11/03 08:32:30;;;;;;;4.80;1.30;;;11.50;1.00;;;;;;5014314;28;20452;-78
2023/11/03 08:34:57;;;;;;;4.60;1.13;;;11.50;1.00;;;;;;5013071;28;20506;-77
2023/11/03 08:37:24;;;;;;;3.70;1.10;;;11.50;1.00;;;;;;5012521;28;20813;-78
2023/11/03 08:39:51;;;;;;;2.47;1.20;;;11.60;1.00;;;;;;5005654;28;20484;-80
2023/11/03 08:42:20;;;;;;;4.27;1.50;;;11.70;99.90;;;;;;4992862;28;20455;-80
2023/11/03 08:44:47;;;;;;;6.03;1.77;;;11.70;1.00;;;;;;5012596;28;20917;-79
2023/11/03 08:47:15;;;;;;;4.43;1.20;;;11.70;99.90;;;;;;5011922;28;20458;-80
2023/11/03 08:49:42;;;;;;;5.40;1.33;;;11.80;99.90;;;;;;5011671;28;20454;-79
2023/11/03 08:52:10;;;;;;;6.43;1.60;;;11.70;99.90;;;;;;5011963;28;20448;-80
2023/11/03 08:54:37;;;;;;;9.30;1.53;;;11.80;1.00;;;;;;5011790;28;20476;-80
2023/11/03 08:57:05;;;;;;;7.40;1.70;;;11.90;99.90;;;;;;5012360;28;21344;-80
2023/11/03 08:59:33;;;;;;;4.50;1.77;;;11.90;99.90;;;;;;5012132;28;21026;-79
2023/11/03 09:02:00;;;;;;;3.07;1.50;;;12.00;1.00;;;;;;5012692;28;20454;-79
2023/11/03 09:04:27;;;;;;;3.30;1.00;;;12.00;99.90;;;;;;5012463;28;20486;-80
2023/11/03 09:06:53;;;;;;;2.87;1.63;;;12.00;99.90;;;;;;5011808;28;20494;-79
2023/11/03 09:09:27;;;;;;;2.80;1.43;;;12.00;99.90;;;;;;5011856;28;20455;-82
2023/11/03 09:11:53;;;;;;;6.37;1.43;;;12.00;99.90;;;;;;5010053;28;20469;-79
2023/11/03 09:14:21;;;;;;;3.93;1.30;;;12.10;99.90;;;;;;5012556;28;20471;-78
2023/11/03 09:16:49;;;;;;;8.00;1.50;;;12.00;99.90;;;;;;5015578;28;20502;-78
2023/11/03 09:19:16;;;;;;;6.90;1.30;;;12.10;99.90;;;;;;5019646;28;20485;-78
2023/11/03 09:21:43;;;;;;;5.87;1.83;;;12.20;99.90;;;;;;5016314;28;20544;-79
2023/11/03 09:24:10;;;;;;;8.13;1.57;;;12.20;99.90;;;;;;5016580;28;20474;-78
2023/11/03 09:26:37;;;;;;;5.73;1.33;;;12.20;99.90;;;;;;5013020;28;20453;-78
2023/11/03 09:29:04;;;;;;;6.23;1.40;;;12.00;99.90;;;;;;5015656;28;20467;-80
2023/11/03 09:31:31;;;;;;;4.60;1.50;;;12.10;99.90;;;;;;5018125;28;20538;-82
2023/11/03 09:33:59;;;;;;;6.60;1.60;;;12.00;99.90;;;;;;5016864;28;20474;-81
2023/11/03 09:36:26;;;;;;;3.13;1.20;;;12.00;99.90;;;;;;5016286;28;20528;-81
2023/11/03 09:38:53;;;;;;;9.87;1.70;;;11.90;99.90;;;;;;5015604;28;20870;-82
2023/11/03 09:41:23;;;;;;;5.60;1.40;;;11.70;99.90;;;;;;5015865;28;20452;-82
2023/11/03 09:43:50;;;;;;;3.53;1.43;;;11.60;1.00;;;;;;5016778;28;20565;-80
2023/11/03 09:46:18;;;;;;;2.67;1.00;;;11.60;1.00;;;;;;5017994;28;20454;-80
2023/11/03 09:48:50;;;;;;;6.90;1.80;;;11.50;99.90;;;;;;5015556;28;20451;-81
2023/11/03 09:51:20;;;;;;;3.27;1.23;;;11.50;99.90;;;;;;5007805;28;20457;-82
2023/11/03 09:53:52;;;;;;;6.93;1.60;;;11.50;1.00;;;;;;5017003;28;20502;-80
2023/11/03 09:56:20;;;;;;;6.90;2.13;;;11.40;1.00;;;;;;5016985;28;20537;-82
2023/11/03 09:58:48;;;;;;;6.70;1.60;;;11.30;1.00;;;;;;5013981;28;20485;-80
2023/11/03 10:01:16;;;;;;;4.67;1.20;;;11.30;1.00;;;;;;5015791;28;20540;-79
2023/11/03 10:03:43;;;;;;;4.67;1.50;;;11.30;1.00;;;;;;5015428;28;20859;-81
2023/11/03 10:06:10;;;;;;;6.70;1.50;;;11.40;1.00;;;;;;5015622;28;20837;-81
2023/11/03 10:08:40;;;;;;;7.17;1.50;;;11.40;1.00;;;;;;5015002;28;20463;-81
2023/11/03 10:11:10;;;;;;;8.43;1.50;;;11.50;1.00;;;;;;5016764;28;20454;-81
2023/11/03 10:13:37;;;;;;;7.37;1.73;;;11.60;1.00;;;;;;5016701;28;20474;-81
2023/11/03 10:16:06;;;;;;;4.87;2.00;;;11.60;1.00;;;;;;5016838;28;20501;-80
2023/11/03 10:18:37;;;;;;;5.23;1.47;;;11.70;99.90;;;;;;5018928;28;20514;-82
2023/11/03 10:21:07;;;;;;;6.20;1.73;;;11.70;1.00;;;;;;5017832;28;20467;-83
2023/11/03 10:23:40;;;;;;;6.87;2.10;;;12.00;1.00;;;;;;5019422;28;20465;-81
2023/11/03 10:26:07;;;;;;;7.43;1.60;;;12.50;99.90;;;;;;5019225;28;20460;-82
2023/11/03 10:28:38;;;;;;;7.10;1.60;;;12.90;99.90;;;;;;5017019;28;20469;-81
2023/11/03 10:31:06;;;;;;;8.50;2.40;;;13.20;1.00;;;;;;5018185;28;20551;-81
2023/11/03 10:33:33;;;;;;;4.00;1.30;;;13.20;99.90;;;;;;5018143;28;20479;-83
2023/11/03 10:36:08;;;;;;;5.60;1.90;;;13.10;99.90;;;;;;5020143;28;20536;-83
2023/11/03 10:38:36;;;;;;;5.37;1.57;;;13.00;99.90;;;;;;5027024;28;20449;-81
2023/11/03 10:41:07;;;;;;;7.13;2.57;;;13.20;99.90;;;;;;5026088;28;20455;-82
2023/11/03 10:43:40;;;;;;;5.40;1.50;;;13.40;1.00;;;;;;5023505;28;20483;-82
2023/11/03 10:46:18;;;;;;;4.70;1.43;;;13.40;99.90;;;;;;5023185;28;20488;-83
2023/11/03 10:48:46;;;;;;;6.03;1.70;;;13.70;99.90;;;;;;5020274;28;20938;-84
2023/11/03 10:51:19;;;;;;;9.77;1.87;;;14.20;99.90;;;;;;5021855;28;20479;-83
2023/11/03 10:53:54;;;;;;;5.23;1.43;;;14.70;1.00;;;;;;5020383;28;20558;-82
2023/11/03 10:56:23;;;;;;;4.93;1.60;;;15.10;99.90;;;;;;5010971;28;20453;-83
2023/11/03 10:58:56;;;;;;;7.63;1.63;;;15.40;99.90;;;;;;5020080;28;20521;-81
2023/11/03 11:01:30;;;;;;;7.93;2.10;;;16.10;99.90;;;;;;5017461;28;20453;-81
2023/11/03 11:04:01;;;;;;;5.07;1.70;;;17.30;1.00;;;;;;5016471;28;20935;-81
2023/11/03 11:06:32;;;;;;;6.53;2.27;;;17.90;1.00;;;;;;5017467;28;20540;-84
2023/11/03 11:09:05;;;;;;;8.27;2.10;;;19.10;1.00;;;;;;5018503;28;20460;-82
2023/11/03 11:11:34;;;;;;;4.57;1.67;;;19.90;1.00;;;;;;5020941;28;20517;-85
2023/11/03 11:14:16;;;;;;;4.07;1.60;;;20.30;1.00;;;;;;5017852;28;20483;-80
2023/11/03 11:16:43;;;;;;;6.40;1.40;;;20.90;1.00;;;;;;5017367;28;20521;-80
2023/11/03 11:19:14;;;;;;;7.57;2.40;;;20.90;1.00;;;;;;5014633;28;20482;-83
2023/11/03 11:21:49;;;;;;;5.50;1.60;;;21.50;1.00;;;;;;5020197;28;20470;-80
2023/11/03 11:24:20;;;;;;;6.00;1.63;;;21.20;1.00;;;;;;5020706;28;20473;-81
2023/11/03 11:26:49;;;;;;;13.43;2.13;;;22.00;1.00;;;;;;5018063;28;20461;-81
2023/11/03 11:29:27;;;;;;;5.50;1.60;;;21.00;1.00;;;;;;5007978;28;20456;-83
2023/11/03 11:32:03;;;;;;;5.57;1.63;;;20.60;1.00;;;;;;5017200;28;20461;-81
2023/11/03 11:34:32;;;;;;;5.10;1.50;;;20.20;1.00;;;;;;5016377;28;20493;-81
2023/11/03 11:37:27;;;;;;;5.60;1.80;;;20.00;1.00;;;;;;5015765;28;21045;-81
2023/11/03 11:39:55;;;;;;;5.77;1.73;;;20.50;1.00;;;;;;5012103;28;21105;-81
2023/11/03 11:42:26;;;;;;;7.37;2.03;;;20.20;1.00;;;;;;5015890;28;20457;-81
2023/11/03 11:44:54;;;;;;;5.87;1.93;;;20.40;1.00;;;;;;5015717;28;20653;-82
2023/11/03 11:47:24;;;;;;;8.80;2.30;;;20.20;1.00;;;;;;5016232;28;20458;-81
2023/11/03 11:49:53;;;;;;;6.50;1.63;;;20.30;1.00;;;;;;5015811;28;20951;-81
2023/11/03 11:52:24;;;;;;;4.53;1.50;;;21.10;1.00;;;;;;5016146;28;20449;-81
2023/11/03 11:54:51;;;;;;;3.77;1.40;;;21.10;1.00;;;;;;5015994;28;20478;-80
2023/11/03 11:57:25;;;;;;;5.60;1.50;;;20.80;1.00;;;;;;5016637;28;20458;-81
2023/11/03 11:59:54;;;;;;;5.40;1.50;;;21.10;1.00;;;;;;5013557;28;20486;-81
2023/11/03 12:02:22;;;;;;;4.67;1.73;;;21.00;1.00;;;;;;5011426;28;20460;-81
2023/11/03 12:04:50;;;;;;;6.10;1.67;;;21.50;1.00;;;;;;5017550;28;20489;-81
2023/11/03 12:07:21;;;;;;;4.60;1.30;;;22.00;1.00;;;;;;5014657;28;20442;-81
2023/11/03 12:09:49;;;;;;;5.13;1.60;;;21.70;1.00;;;;;;5011845;28;20517;-81
2023/11/03 12:12:16;;;;;;;6.47;2.10;;;20.80;1.00;;;;;;5012539;28;20489;-80
2023/11/03 12:14:45;;;;;;;8.53;1.90;;;19.70;1.00;;;;;;5015549;28;20469;-80
2023/11/03 12:17:12;;;;;;;5.43;2.10;;;18.60;1.00;;;;;;5017010;28;20466;-80
2023/11/03 12:19:40;;;;;;;5.43;1.53;;;18.40;1.00;;;;;;5018724;28;20488;-82
2023/11/03 12:22:07;;;;;;;9.60;1.90;;;18.00;1.00;;;;;;5014099;28;20461;-81
2023/11/03 12:24:34;;;;;;;8.90;2.20;;;17.80;1.00;;;;;;5016576;28;20469;-80
2023/11/03 12:27:01;;;;;;;5.97;1.90;;;17.20;1.00;;;;;;5016507;28;20450;-80
2023/11/03 12:29:30;;;;;;;7.40;1.90;;;16.60;1.00;;;;;;5016758;28;20458;-79
2023/11/03 12:31:59;;;;;;;8.30;1.73;;;16.00;1.00;;;;;;5014710;28;20466;-81
2023/11/03 12:34:30;;;;;;;6.30;1.87;;;16.00;1.00;;;;;;5017790;28;20545;-82
2023/11/03 12:36:57;;;;;;;3.80;1.67;;;15.90;1.00;;;;;;5017034;28;20911;-81
2023/11/03 12:39:24;;;;;;;6.80;1.40;;;15.60;1.00;;;;;;5014107;28;20453;-80
2023/11/03 12:42:03;;;;;;;8.83;2.10;;;15.50;43.60;;;;;;5016332;28;20449;-80
2023/11/03 12:44:31;;;;;;;4.27;1.40;;;15.60;1.00;;;;;;5018047;28;20560;-81
2023/11/03 12:47:01;;;;;;;8.67;1.83;;;15.60;1.00;;;;;;5016291;28;20474;-81
2023/11/03 12:49:28;;;;;;;10.30;2.73;;;16.10;1.00;;;;;;5016070;28;20451;-80
2023/11/03 12:51:55;;;;;;;6.30;1.97;;;16.40;1.00;;;;;;5018675;28;20985;-81
2023/11/03 12:54:22;;;;;;;9.30;2.03;;;16.80;1.00;;;;;;5019549;28;20476;-82
2023/11/03 12:56:50;;;;;;;12.20;1.87;;;17.30;1.00;;;;;;5022165;28;20449;-81
2023/11/03 12:59:18;;;;;;;5.20;1.77;;;17.70;1.00;;;;;;5017286;28;20453;-82